Time;durP1;ratioP1;P1;durP2;ratioP2;P2;SDS_P1;SDS_P2;PMS_P1;PMS_P2;Temp;Humidity;BMP_temperature;BMP_pressure;BME280_temperature;BME280_humidity;BME280_pressure;Samples;Min_cycle;Max_cycle;Signal;HPM_P1;HPM_P2
2022/05/31 00:01:35;;;;;;;2.65;0.93;;;;;;;9.67;100.00;98338.63;4995659;28;20022;-64
2022/05/31 00:04:00;;;;;;;1.23;0.70;;;;;;;9.60;100.00;98341.31;4997841;28;20518;-64
2022/05/31 00:06:25;;;;;;;1.48;0.68;;;;;;;9.47;100.00;98337.81;4985569;28;20026;-64
2022/05/31 00:08:52;;;;;;;1.08;0.70;;;;;;;9.42;100.00;98333.84;4997020;28;20058;-65
2022/05/31 00:11:18;;;;;;;2.22;0.82;;;;;;;9.48;100.00;98332.19;4985162;28;20374;-65
2022/05/31 00:13:43;;;;;;;2.65;0.95;;;;;;;9.50;100.00;98331.97;4998044;28;20122;-65
2022/05/31 00:16:10;;;;;;;5.50;1.15;;;;;;;9.40;100.00;98335.91;4998466;28;20036;-65
2022/05/31 00:18:35;;;;;;;2.17;1.20;;;;;;;9.21;100.00;98334.03;4997502;28;20045;-65
2022/05/31 00:21:01;;;;;;;6.40;1.02;;;;;;;9.15;100.00;98327.59;4992353;28;20069;-65
2022/05/31 00:23:26;;;;;;;4.25;1.20;;;;;;;9.12;100.00;98333.41;4997181;28;20029;-65
2022/05/31 00:25:52;;;;;;;2.05;0.90;;;;;;;9.31;100.00;98330.94;4993230;28;20038;-65
2022/05/31 00:28:17;;;;;;;2.42;0.90;;;;;;;9.28;100.00;98323.25;4992348;28;20026;-65
2022/05/31 00:30:42;;;;;;;1.67;1.00;;;;;;;9.26;100.00;98322.63;4995531;28;20027;-65
2022/05/31 00:33:10;;;;;;;2.70;1.17;;;;;;;9.17;100.00;98328.25;4992916;28;20026;-64
2022/05/31 00:35:39;;;;;;;1.85;1.15;;;;;;;8.99;100.00;98306.41;4990643;28;20030;-65
2022/05/31 00:38:07;;;;;;;2.08;1.30;;;;;;;8.90;100.00;98307.63;4988583;28;20168;-65
2022/05/31 00:40:34;;;;;;;2.95;1.13;;;;;;;8.96;100.00;98331.09;4988473;28;20026;-65
2022/05/31 00:43:03;;;;;;;1.73;1.27;;;;;;;8.82;100.00;98335.63;4990570;28;20516;-65
2022/05/31 00:45:57;;;;;;;2.92;1.15;;;;;;;8.76;100.00;98339.97;4988240;28;20033;-65
2022/05/31 00:48:27;;;;;;;2.08;1.27;;;;;;;8.70;100.00;98331.88;4998398;28;20062;-64
2022/05/31 00:51:04;;;;;;;2.35;1.30;;;;;;;8.59;100.00;98343.22;4989094;28;20045;-65
2022/05/31 00:53:38;;;;;;;2.22;1.30;;;;;;;8.47;100.00;98340.31;4995334;28;20021;-65
2022/05/31 00:56:09;;;;;;;1.55;1.10;;;;;;;8.37;100.00;98332.53;4985831;28;20050;-65
2022/05/31 00:58:39;;;;;;;2.05;1.08;;;;;;;8.24;100.00;98321.72;5003522;28;20108;-65
2022/05/31 01:01:08;;;;;;;0.82;0.80;;;;;;;8.30;100.00;98337.06;4992690;28;20026;-64
2022/05/31 01:03:37;;;;;;;4.03;1.17;;;;;;;8.23;100.00;98336.22;4995117;28;20504;-65
2022/05/31 01:06:04;;;;;;;1.63;1.13;;;;;;;8.06;100.00;98324.94;4992908;28;20034;-65
2022/05/31 01:08:29;;;;;;;2.85;0.93;;;;;;;8.10;100.00;98345.06;4999590;28;20377;-65
2022/05/31 01:10:54;;;;;;;3.70;1.00;;;;;;;8.06;100.00;98336.53;4999930;28;20061;-65
2022/05/31 01:13:20;;;;;;;1.67;0.98;;;;;;;7.90;100.00;98318.00;4992675;28;20076;-65
2022/05/31 01:15:47;;;;;;;2.83;1.25;;;;;;;8.07;100.00;98329.31;4991168;28;20029;-63
2022/05/31 01:18:13;;;;;;;1.58;1.02;;;;;;;7.93;100.00;98306.81;4991723;28;20110;-65
2022/05/31 01:20:39;;;;;;;2.65;1.40;;;;;;;8.18;100.00;98330.59;4990024;28;20462;-65
2022/05/31 01:23:12;;;;;;;2.72;1.27;;;;;;;8.17;100.00;98332.44;4993427;28;20084;-64
2022/05/31 01:25:44;;;;;;;3.22;1.40;;;;;;;8.16;100.00;98332.66;4983134;28;20025;-65
2022/05/31 01:28:41;;;;;;;3.55;1.30;;;;;;;8.15;100.00;98325.59;4992513;28;20026;-65
2022/05/31 01:31:19;;;;;;;3.25;0.90;;;;;;;8.17;100.00;98331.59;4988582;28;20685;-65
2022/05/31 01:33:50;;;;;;;1.95;1.20;;;;;;;7.94;100.00;98316.59;4992352;28;20101;-65
2022/05/31 01:36:20;;;;;;;3.90;1.17;;;;;;;8.01;100.00;98330.91;4987683;28;20488;-64
2022/05/31 01:39:03;;;;;;;2.58;1.50;;;;;;;8.02;100.00;98334.44;4991172;28;20038;-64
2022/05/31 01:41:38;;;;;;;1.70;1.10;;;;;;;8.12;100.00;98334.91;5007305;28;20030;-65
2022/05/31 01:44:08;;;;;;;4.00;1.27;;;;;;;7.99;100.00;98333.00;4993642;28;20506;-65
2022/05/31 01:46:35;;;;;;;2.15;1.17;;;;;;;7.89;100.00;98337.91;4983744;28;20031;-65
2022/05/31 01:49:06;;;;;;;1.73;1.15;;;;;;;7.79;100.00;98343.63;5002264;28;20026;-64
2022/05/31 01:51:33;;;;;;;1.27;1.10;;;;;;;7.68;100.00;98334.22;4995588;28;20029;-64
2022/05/31 01:53:58;;;;;;;1.38;1.17;;;;;;;7.54;100.00;98340.53;4992931;28;20105;-65
2022/05/31 01:56:25;;;;;;;4.53;1.30;;;;;;;7.61;100.00;98343.28;4984356;28;20152;-64
2022/05/31 01:58:53;;;;;;;4.00;0.95;;;;;;;7.54;100.00;98339.69;4997610;28;20188;-65
2022/05/31 02:01:18;;;;;;;2.05;1.17;;;;;;;7.65;100.00;98348.09;5001298;28;20392;-64
2022/05/31 02:03:44;;;;;;;1.77;1.13;;;;;;;7.56;100.00;98334.97;4997507;28;20026;-65
2022/05/31 02:06:23;;;;;;;2.17;1.05;;;;;;;7.47;100.00;98343.19;4987841;28;20454;-64
2022/05/31 02:08:48;;;;;;;1.77;1.20;;;;;;;7.49;100.00;98326.81;4996599;28;20508;-65
2022/05/31 02:11:13;;;;;;;2.15;1.08;;;;;;;7.49;100.00;98337.59;4988855;28;20087;-65
2022/05/31 02:13:39;;;;;;;2.30;1.10;;;;;;;7.45;100.00;98336.34;5001969;28;20026;-65
2022/05/31 02:16:04;;;;;;;2.83;1.30;;;;;;;7.47;100.00;98331.59;4990241;28;20310;-62
2022/05/31 02:19:15;;;;;;;2.22;1.38;;;;;;;7.41;100.00;98330.53;4991457;28;20635;-65
2022/05/31 02:21:15;;;;;;;1.00;0.85;;;;;;;7.48;100.00;98330.56;4996386;28;20041;-65
2022/05/31 02:23:40;;;;;;;2.35;1.40;;;;;;;7.36;100.00;98338.34;4993763;28;20026;-65
2022/05/31 02:26:06;;;;;;;2.90;1.20;;;;;;;7.37;100.00;98337.31;4989555;28;20037;-63
2022/05/31 02:28:31;;;;;;;2.13;1.40;;;;;;;7.12;100.00;98309.13;4990094;28;20022;-65
2022/05/31 02:30:56;;;;;;;2.17;1.38;;;;;;;7.24;100.00;98329.94;4998390;28;20494;-65
2022/05/31 02:33:21;;;;;;;1.83;1.27;;;;;;;7.06;100.00;98309.91;4995862;28;20111;-65
2022/05/31 02:35:47;;;;;;;2.40;1.30;;;;;;;7.04;100.00;98323.53;4986867;28;20030;-64
2022/05/31 02:38:12;;;;;;;1.90;1.13;;;;;;;6.80;100.00;98297.88;4992729;28;20034;-65
2022/05/31 02:40:38;;;;;;;1.92;1.33;;;;;;;6.96;100.00;98321.00;5001372;28;20030;-65
2022/05/31 02:43:03;;;;;;;1.98;1.42;;;;;;;6.98;100.00;98327.84;5005544;28;20543;-64
2022/05/31 02:45:28;;;;;;;1.90;1.30;;;;;;;7.05;100.00;98329.75;4990530;28;20053;-64
2022/05/31 02:47:55;;;;;;;1.85;1.20;;;;;;;6.98;100.00;98319.78;4988268;28;20034;-65
2022/05/31 02:50:20;;;;;;;1.50;1.23;;;;;;;6.92;100.00;98325.09;4980961;28;20508;-65
2022/05/31 02:52:46;;;;;;;2.13;1.27;;;;;;;6.85;100.00;98298.13;4988945;28;20037;-65
2022/05/31 02:55:11;;;;;;;1.65;1.20;;;;;;;6.94;100.00;98323.03;4986784;28;20038;-65
2022/05/31 02:57:37;;;;;;;1.77;1.40;;;;;;;6.89;100.00;98331.69;4988386;28;20435;-66
2022/05/31 03:00:04;;;;;;;2.10;1.35;;;;;;;6.78;100.00;98308.81;4985556;28;20031;-66
2022/05/31 03:02:29;;;;;;;2.10;1.55;;;;;;;6.88;100.00;98324.63;4984220;28;20022;-66
2022/05/31 03:04:55;;;;;;;2.33;1.52;;;;;;;6.85;100.00;98308.06;4993073;28;20499;-65
2022/05/31 03:07:20;;;;;;;1.73;1.23;;;;;;;6.99;100.00;98337.56;4986901;28;20054;-65
2022/05/31 03:09:46;;;;;;;2.85;1.55;;;;;;;6.97;100.00;98328.88;4991207;28;20400;-66
2022/05/31 03:12:16;;;;;;;2.38;1.40;;;;;;;7.02;100.00;98309.44;4991780;28;20038;-66
2022/05/31 03:15:00;;;;;;;2.10;1.33;;;;;;;7.07;100.00;98336.59;5005587;28;20095;-66
2022/05/31 03:17:34;;;;;;;2.70;1.80;;;;;;;6.96;100.00;98339.81;4996009;28;20029;-63
2022/05/31 03:20:06;;;;;;;2.80;1.33;;;;;;;6.82;100.00;98338.03;4986622;28;20042;-66
2022/05/31 03:22:47;;;;;;;1.85;1.23;;;;;;;6.72;100.00;98341.00;4985559;28;20023;-65
2022/05/31 03:25:18;;;;;;;1.70;1.25;;;;;;;6.53;100.00;98316.41;4991862;28;20053;-66
2022/05/31 03:27:44;;;;;;;2.05;1.33;;;;;;;6.59;100.00;98320.19;4994724;28;20507;-66
2022/05/31 03:30:10;;;;;;;1.90;1.60;;;;;;;6.63;100.00;98334.94;4989004;28;20034;-65
2022/05/31 03:32:36;;;;;;;2.40;1.83;;;;;;;6.73;100.00;98335.47;4994160;28;20029;-63
2022/05/31 03:35:02;;;;;;;3.03;1.90;;;;;;;6.54;100.00;98333.38;4995246;28;20427;-65
2022/05/31 03:37:27;;;;;;;3.65;2.17;;;;;;;6.49;100.00;98333.09;4981687;28;20121;-66
2022/05/31 03:39:53;;;;;;;4.72;2.20;;;;;;;6.50;100.00;98324.03;4994914;28;20034;-65
2022/05/31 03:42:18;;;;;;;3.92;2.03;;;;;;;6.46;100.00;98331.63;5002543;28;20036;-66
2022/05/31 03:44:43;;;;;;;4.68;2.38;;;;;;;6.53;100.00;98343.28;5000160;28;20080;-65
2022/05/31 03:47:09;;;;;;;3.28;2.33;;;;;;;6.41;100.00;98327.84;4993246;28;20034;-64
2022/05/31 03:49:34;;;;;;;4.65;2.28;;;;;;;6.42;100.00;98337.56;4994071;28;20105;-65
2022/05/31 03:51:59;;;;;;;4.63;2.70;;;;;;;6.62;100.00;98352.06;4991606;28;20088;-66
2022/05/31 03:54:26;;;;;;;4.95;2.42;;;;;;;6.48;100.00;98339.50;4989512;28;20488;-74
2022/05/31 03:56:51;;;;;;;4.05;2.35;;;;;;;6.41;100.00;98339.41;4982925;28;20525;-73
2022/05/31 03:59:17;;;;;;;5.40;2.60;;;;;;;6.38;100.00;98318.28;4990799;28;20062;-73
2022/05/31 04:01:42;;;;;;;3.90;2.90;;;;;;;6.36;100.00;98326.53;4991843;28;20037;-73
2022/05/31 04:04:08;;;;;;;4.57;2.85;;;;;;;6.54;100.00;98328.00;4993430;28;20030;-72
2022/05/31 04:06:35;;;;;;;7.82;3.30;;;;;;;6.77;100.00;98343.97;4988334;28;20018;-74
2022/05/31 04:09:01;;;;;;;5.90;2.92;;;;;;;6.90;100.00;98324.44;4995489;28;20084;-69
2022/05/31 04:11:27;;;;;;;4.28;2.67;;;;;;;7.19;100.00;98321.63;4997329;28;20538;-71
2022/05/31 04:13:53;;;;;;;3.80;2.40;;;;;;;7.39;100.00;98321.78;4991417;28;20041;-73
2022/05/31 04:16:19;;;;;;;4.50;2.50;;;;;;;7.61;100.00;98319.88;4985930;28;20492;-72
2022/05/31 04:18:44;;;;;;;5.30;2.42;;;;;;;7.92;100.00;98326.72;4992756;28;20113;-71
2022/05/31 04:21:12;;;;;;;2.90;2.00;;;;;;;8.13;100.00;98340.09;4999802;28;20392;-72
2022/05/31 04:26:44;;;;;;;4.47;2.25;;;;;;;8.33;100.00;98321.34;4989381;28;20027;-67
2022/05/31 04:29:09;;;;;;;4.63;2.05;;;;;;;8.36;100.00;98317.41;4990606;28;20033;-71
2022/05/31 04:31:35;;;;;;;2.42;1.98;;;;;;;8.37;100.00;98308.28;4994156;28;20026;-71
2022/05/31 04:34:00;;;;;;;5.88;2.03;;;;;;;8.26;100.00;98317.78;4999965;28;20069;-72
2022/05/31 04:36:25;;;;;;;2.42;1.95;;;;;;;8.15;100.00;98302.19;4995839;28;20030;-73
2022/05/31 04:38:51;;;;;;;3.03;1.95;;;;;;;8.21;100.00;98287.06;4997947;28;20085;-68
2022/05/31 04:41:26;;;;;;;4.60;2.00;;;;;;;8.40;100.00;98334.88;4991445;28;20420;-70
2022/05/31 04:43:53;;;;;;;3.20;2.05;;;;;;;8.36;100.00;98325.50;4992918;28;20034;-72
2022/05/31 04:46:22;;;;;;;4.10;2.20;;;;;;;8.35;100.00;98327.34;4989890;28;20639;-71
2022/05/31 04:48:47;;;;;;;4.50;1.85;;;;;;;8.21;100.00;98306.78;4991237;28;20034;-71
2022/05/31 04:51:13;;;;;;;4.22;2.17;;;;;;;8.25;100.00;98309.88;4994295;28;20533;-68
2022/05/31 04:53:42;;;;;;;2.33;1.85;;;;;;;8.33;100.00;98307.00;4995619;28;20028;-70
2022/05/31 04:56:11;;;;;;;3.10;2.10;;;;;;;8.56;100.00;98312.09;4991424;28;20026;-71
2022/05/31 04:58:37;;;;;;;3.63;2.13;;;;;;;8.81;100.00;98320.50;4991580;28;20069;-69
2022/05/31 05:01:06;;;;;;;5.38;2.40;;;;;;;8.86;100.00;98282.94;4993469;28;20023;-70
2022/05/31 05:03:33;;;;;;;2.75;2.10;;;;;;;8.99;100.00;98271.34;5033791;23;20044;-72
2022/05/31 05:06:00;;;;;;;2.75;2.10;;;;;;;9.35;100.00;98294.38;5027376;28;20075;-72
2022/05/31 05:08:26;;;;;;;3.60;2.00;;;;;;;9.52;100.00;98278.59;5032188;28;20466;-71
2022/05/31 05:10:51;;;;;;;2.72;1.80;;;;;;;9.69;100.00;98285.22;5029349;28;20057;-74
2022/05/31 05:13:17;;;;;;;2.78;1.95;;;;;;;9.71;100.00;98266.94;5030161;28;20067;-73
2022/05/31 05:15:42;;;;;;;3.60;2.05;;;;;;;9.81;100.00;98275.44;5009925;28;20038;-72
2022/05/31 05:18:08;;;;;;;4.40;2.30;;;;;;;9.86;100.00;98297.25;5012341;28;20017;-72
2022/05/31 05:20:36;;;;;;;4.00;2.58;;;;;;;9.80;100.00;98275.66;5008748;28;20030;-75
2022/05/31 05:23:06;;;;;;;2.40;1.75;;;;;;;10.14;100.00;98298.00;5011133;28;20427;-73
2022/05/31 05:25:31;;;;;;;3.00;1.90;;;;;;;10.22;100.00;98304.00;5009243;28;20033;-73
2022/05/31 05:27:56;;;;;;;3.47;1.90;;;;;;;10.33;100.00;98301.72;5006766;28;20061;-69
2022/05/31 05:30:40;;;;;;;4.30;2.08;;;;;;;10.54;100.00;98301.41;5018160;28;20030;-66
2022/05/31 05:33:06;;;;;;;2.15;1.67;;;;;;;10.91;100.00;98298.91;5019012;28;20113;-69
2022/05/31 05:35:33;;;;;;;4.97;1.88;;;;;;;10.92;100.00;98270.78;5005276;28;20718;-76
2022/05/31 05:37:59;;;;;;;4.70;1.80;;;;;;;10.99;100.00;98262.63;5012043;28;20095;-75
2022/05/31 05:40:25;;;;;;;3.88;1.80;;;;;;;11.25;100.00;98302.22;5029660;28;20049;-71
2022/05/31 05:42:50;;;;;;;4.03;2.08;;;;;;;11.32;100.00;98300.31;5004816;28;20108;-78
2022/05/31 05:45:15;;;;;;;2.65;1.90;;;;;;;11.37;100.00;98289.59;5012367;28;20029;-77
2022/05/31 05:47:41;;;;;;;2.55;1.70;;;;;;;11.66;100.00;98281.84;5016569;28;20034;-77
2022/05/31 05:50:07;;;;;;;10.05;2.00;;;;;;;12.03;100.00;98269.22;5010941;28;20482;-77
2022/05/31 05:52:33;;;;;;;4.13;2.08;;;;;;;12.52;99.95;98299.91;4995722;28;20089;-66
2022/05/31 05:54:58;;;;;;;2.45;1.55;;;;;;;13.21;93.50;98297.69;5010540;28;20025;-68
2022/05/31 05:57:24;;;;;;;4.07;1.85;;;;;;;13.59;87.81;98267.41;5016776;28;20390;-72
2022/05/31 05:59:49;;;;;;;2.47;1.80;;;;;;;13.94;89.40;98285.63;5009255;28;20045;-73
2022/05/31 06:02:29;;;;;;;2.75;1.92;;;;;;;13.70;89.51;98257.63;5009672;28;20018;-73
2022/05/31 06:05:07;;;;;;;3.63;1.80;;;;;;;13.79;89.64;98283.38;5011671;28;20038;-73
2022/05/31 06:07:44;;;;;;;4.32;2.00;;;;;;;14.49;85.58;98287.06;5005403;28;20112;-74
2022/05/31 06:10:17;;;;;;;3.38;1.80;;;;;;;14.47;85.65;98281.03;5009517;28;20022;-73
2022/05/31 06:12:49;;;;;;;2.95;1.90;;;;;;;14.45;84.86;98285.88;5011781;28;20434;-73
2022/05/31 06:15:19;;;;;;;3.40;2.03;;;;;;;14.33;nan;98234.22;5009391;28;20033;-74
2022/05/31 06:17:49;;;;;;;2.97;1.90;;;;;;;14.65;83.43;98280.06;5004071;28;20022;-74
2022/05/31 06:20:15;;;;;;;3.15;2.00;;;;;;;14.47;84.39;98268.22;5022723;28;20037;-73
2022/05/31 06:22:42;;;;;;;5.10;1.83;;;;;;;14.71;81.90;98295.41;5012620;28;20025;-73
2022/05/31 06:25:11;;;;;;;2.65;1.70;;;;;;;15.35;75.34;98289.75;5010494;28;20036;-74
2022/05/31 06:27:36;;;;;;;3.55;1.90;;;;;;;15.57;73.67;98277.03;5014122;28;20025;-74
2022/05/31 06:30:02;;;;;;;3.00;2.10;;;;;;;15.02;78.05;98268.75;5008927;28;20065;-74
2022/05/31 06:32:27;;;;;;;6.60;2.00;;;;;;;15.28;77.90;98259.13;5021964;28;20017;-74
2022/05/31 06:34:52;;;;;;;4.22;1.92;;;;;;;16.20;72.91;98285.88;5004555;28;20367;-72
2022/05/31 06:37:18;;;;;;;4.22;1.77;;;;;;;17.52;64.80;98279.38;5007107;28;20026;-75
2022/05/31 06:39:46;;;;;;;4.68;2.00;;;;;;;17.36;62.44;98277.63;5006578;28;20036;-74
2022/05/31 06:42:12;;;;;;;1.73;1.38;;;;;;;17.93;61.25;98282.47;5019104;28;20037;-73
2022/05/31 06:44:40;;;;;;;3.20;1.70;;;;;;;17.60;63.26;98262.50;5022974;28;20029;-74
2022/05/31 06:47:05;;;;;;;3.47;1.45;;;;;;;18.53;62.76;98294.84;5024173;28;20407;-76
2022/05/31 06:49:32;;;;;;;7.18;1.42;;;;;;;18.69;60.10;98259.28;5011157;28;20048;-76
2022/05/31 06:57:35;;;;;;;3.50;1.90;;;;;;;18.70;61.55;98288.31;5013305;28;20099;-74
2022/05/31 07:00:01;;;;;;;3.08;1.77;;;;;;;18.64;60.90;98278.44;5018427;28;20030;-74
2022/05/31 07:02:27;;;;;;;4.35;1.45;;;;;;;19.98;56.34;98288.47;5010999;28;20105;-74
2022/05/31 07:04:54;;;;;;;3.70;1.58;;;;;;;20.85;52.85;98277.22;5012867;28;20038;-75
2022/05/31 07:07:19;;;;;;;4.60;1.58;;;;;;;22.49;48.47;98282.19;5013459;28;20017;-73
2022/05/31 07:09:45;;;;;;;5.20;1.20;;;;;;;23.33;45.49;98279.66;5008750;28;20391;-72
2022/05/31 07:12:10;;;;;;;3.80;1.30;;;;;;;25.62;42.38;98275.44;5008004;28;20030;-69
2022/05/31 07:14:35;;;;;;;2.10;1.10;;;;;;;27.40;37.75;98267.97;5011010;28;20029;-69
2022/05/31 07:17:01;;;;;;;2.67;1.25;;;;;;;28.51;34.98;98270.84;5005487;28;20033;-68
2022/05/31 07:19:26;;;;;;;3.47;1.25;;;;;;;27.69;35.20;98256.16;5007910;28;20403;-69
2022/05/31 07:21:52;;;;;;;3.05;1.25;;;;;;;26.09;37.40;98258.47;5013266;28;20057;-71
2022/05/31 07:24:17;;;;;;;3.25;1.40;;;;;;;24.21;40.60;98254.16;5019227;28;20033;-70
2022/05/31 07:26:42;;;;;;;2.78;1.15;;;;;;;24.30;40.21;98257.84;5002746;28;20056;-71
2022/05/31 07:29:09;;;;;;;2.13;0.90;;;;;;;25.90;37.98;98245.66;5014200;28;20030;-70
2022/05/31 07:31:36;;;;;;;3.10;1.15;;;;;;;27.39;35.62;98247.69;5012047;28;20025;-70
2022/05/31 07:34:01;;;;;;;1.70;1.05;;;;;;;28.75;32.27;98256.31;5012290;28;20026;-70
2022/05/31 07:36:27;;;;;;;1.63;0.90;;;;;;;29.42;30.94;98250.91;5010226;28;20534;-70
2022/05/31 07:38:53;;;;;;;3.08;1.08;;;;;;;30.15;30.85;98250.34;5012796;28;20038;-68
2022/05/31 07:41:19;;;;;;;1.95;0.90;;;;;;;28.92;31.83;98249.78;5007510;28;20049;-68
2022/05/31 07:43:44;;;;;;;3.88;1.20;;;;;;;29.53;30.47;98217.84;5020618;28;20513;-74
2022/05/31 07:46:13;;;;;;;4.00;1.80;;;;;;;30.16;30.06;98249.22;5012267;28;20411;-73
2022/05/31 07:48:39;;;;;;;;;;;;;;;30.11;29.37;98243.84;5010190;28;20033;-72
2022/05/31 07:51:06;;;;;;;1.58;1.00;;;;;;;29.51;30.48;98236.94;5018860;28;19920;-72
2022/05/31 07:53:32;;;;;;;3.10;1.10;;;;;;;28.03;31.28;98232.22;5018521;28;20084;-71
2022/05/31 07:56:00;;;;;;;2.25;0.70;;;;;;;29.23;30.78;98243.06;5013983;28;20034;-73
2022/05/31 07:58:32;;;;;;;2.90;0.93;;;;;;;28.70;30.74;98248.16;5004385;28;20022;-73
2022/05/31 08:01:04;;;;;;;3.85;0.90;;;;;;;29.05;30.17;98236.81;5008724;28;20040;-73
2022/05/31 08:03:30;;;;;;;2.38;0.90;;;;;;;29.17;30.10;98241.63;5014329;28;20078;-74
2022/05/31 08:05:56;;;;;;;5.53;0.90;;;;;;;28.14;30.90;98253.00;5013444;28;20029;-74
2022/05/31 08:08:21;;;;;;;3.85;1.02;;;;;;;28.09;31.33;98237.28;5009059;28;20056;-75
2022/05/31 08:10:47;;;;;;;2.20;0.70;;;;;;;28.41;31.00;98237.81;5021462;28;20029;-75
2022/05/31 08:13:12;;;;;;;5.20;0.90;;;;;;;29.36;30.46;98238.34;5013494;28;20033;-75
2022/05/31 08:15:38;;;;;;;0.73;0.63;;;;;;;30.86;28.29;98235.16;5010313;28;20054;-75
2022/05/31 08:18:04;;;;;;;1.58;0.75;;;;;;;28.23;31.91;98214.81;5011401;28;20025;-76
2022/05/31 08:20:29;;;;;;;4.63;0.90;;;;;;;31.15;28.22;98228.50;5013362;28;20380;-73
2022/05/31 08:22:55;;;;;;;2.08;0.90;;;;;;;31.78;27.66;98230.72;5014929;28;20037;-70
2022/05/31 08:25:21;;;;;;;2.67;1.08;;;;;;;31.99;26.84;98238.06;5013056;28;20062;-68
2022/05/31 08:27:46;;;;;;;5.05;1.23;;;;;;;31.59;26.94;98210.97;5013119;28;20088;-73
2022/05/31 08:30:11;;;;;;;2.08;1.02;;;;;;;30.83;28.51;98207.16;5018438;28;20030;-73
2022/05/31 08:32:37;;;;;;;1.92;0.90;;;;;;;30.26;28.85;98223.69;5012689;28;20084;-74
2022/05/31 08:35:04;;;;;;;6.93;1.05;;;;;;;31.15;27.43;98222.06;5011079;28;20380;-74
2022/05/31 08:37:30;;;;;;;1.60;0.90;;;;;;;31.44;27.42;98221.78;5008654;28;20025;-73
2022/05/31 08:39:56;;;;;;;2.15;1.00;;;;;;;30.45;28.44;98231.47;5010588;28;20041;-72
2022/05/31 08:42:27;;;;;;;1.90;0.73;;;;;;;32.77;26.42;98227.22;5015435;28;20026;-70
2022/05/31 08:45:07;;;;;;;4.45;1.08;;;;;;;32.47;27.29;98220.13;5012498;28;20030;-70
2022/05/31 08:47:46;;;;;;;1.27;0.60;;;;;;;32.87;25.52;98221.84;5005379;28;20036;-70
2022/05/31 08:53:33;;;;;;;2.88;1.02;;;;;;;29.67;28.46;98218.41;5010469;28;20160;-69
2022/05/31 08:59:09;;;;;;;3.00;1.20;;;;;;;26.70;33.02;98226.25;5013501;28;20129;-71
2022/05/31 09:01:53;;;;;;;1.58;0.85;;;;;;;25.12;36.19;98229.25;5001074;28;20395;-70
2022/05/31 09:04:36;;;;;;;2.53;1.08;;;;;;;25.30;37.44;98226.66;5004089;28;20038;-69
2022/05/31 09:07:24;;;;;;;1.73;1.13;;;;;;;25.71;36.56;98220.91;5010961;28;20045;-71
2022/05/31 09:09:55;;;;;;;3.30;1.23;;;;;;;25.45;36.38;98236.53;5009103;28;20026;-69
2022/05/31 09:12:45;;;;;;;1.85;1.00;;;;;;;26.50;35.58;98235.13;5009058;28;20029;-69
2022/05/31 09:15:27;;;;;;;1.90;0.95;;;;;;;27.62;32.59;98236.41;5009246;28;20084;-69
2022/05/31 09:18:24;;;;;;;3.00;0.98;;;;;;;28.26;32.23;98235.59;5003548;28;20045;-69
2022/05/31 09:20:55;;;;;;;1.35;0.70;;;;;;;29.39;30.44;98227.34;5011511;28;20026;-69
2022/05/31 09:23:27;;;;;;;1.20;0.65;;;;;;;30.31;29.58;98236.56;5012068;28;20025;-70
2022/05/31 09:26:16;;;;;;;1.48;0.70;;;;;;;30.85;27.99;98235.53;5008213;28;20029;-70
2022/05/31 09:28:51;;;;;;;2.65;0.82;;;;;;;31.30;26.51;98229.72;5019882;28;20505;-70
2022/05/31 09:31:54;;;;;;;2.53;0.70;;;;;;;32.04;25.58;98235.00;5003105;28;20038;-70
2022/05/31 09:34:31;;;;;;;2.60;0.80;;;;;;;32.16;26.23;98234.13;5009533;28;20021;-70
2022/05/31 09:37:21;;;;;;;2.38;0.77;;;;;;;30.56;28.22;98234.59;5010859;28;20030;-70
2022/05/31 09:39:58;;;;;;;4.10;1.00;;;;;;;29.18;29.19;98235.72;5006387;28;20606;-71
2022/05/31 09:42:32;;;;;;;2.33;0.90;;;;;;;29.06;28.84;98230.09;5008050;28;20033;-71
2022/05/31 09:45:09;;;;;;;1.65;0.90;;;;;;;29.47;28.71;98223.69;5010015;28;20034;-71
2022/05/31 09:47:35;;;;;;;1.80;0.70;;;;;;;29.25;29.51;98230.41;5006419;28;20576;-71
2022/05/31 09:50:01;;;;;;;5.28;1.00;;;;;;;31.79;27.23;98228.72;5006116;28;20029;-70
2022/05/31 09:52:36;;;;;;;1.90;0.75;;;;;;;32.46;26.57;98231.66;5012090;28;20043;-70
2022/05/31 09:57:58;;;;;;;1.65;0.82;;;;;;;32.25;25.96;98229.97;5001477;28;20053;-70
2022/05/31 10:00:23;;;;;;;1.95;1.00;;;;;;;30.44;27.28;98226.22;5004305;28;20034;-70
2022/05/31 10:03:10;;;;;;;3.70;1.13;;;;;;;31.66;26.58;98228.78;5011246;28;20383;-71
2022/05/31 10:05:36;;;;;;;2.80;1.00;;;;;;;30.83;28.23;98221.91;5009065;28;20041;-70
2022/05/31 10:08:03;;;;;;;1.95;1.00;;;;;;;30.51;27.33;98226.47;5007708;28;20482;-70
2022/05/31 10:10:33;;;;;;;4.07;1.00;;;;;;;30.33;27.29;98209.13;5006886;28;20384;-74
2022/05/31 10:13:04;;;;;;;1.88;1.20;;;;;;;29.77;27.94;98223.56;5005620;28;20119;-70
2022/05/31 10:15:44;;;;;;;8.77;1.00;;;;;;;29.79;28.26;98221.25;5009619;28;20427;-70
2022/05/31 10:18:32;;;;;;;3.90;1.05;;;;;;;29.56;27.96;98223.59;5006813;28;20049;-70
2022/05/31 10:21:01;;;;;;;1.80;0.90;;;;;;;30.39;28.34;98218.88;5002717;28;20048;-70
2022/05/31 10:23:41;;;;;;;4.47;1.00;;;;;;;30.74;27.91;98213.66;5005477;28;20041;-70
2022/05/31 10:26:06;;;;;;;2.05;1.10;;;;;;;28.27;28.89;98213.00;5008504;28;20137;-70
2022/05/31 10:28:50;;;;;;;4.30;1.10;;;;;;;28.70;30.30;98213.94;5002038;28;20101;-70
2022/05/31 10:31:33;;;;;;;2.20;0.90;;;;;;;28.51;30.24;98208.81;4999679;28;20459;-70
2022/05/31 10:34:22;;;;;;;2.88;1.00;;;;;;;28.14;29.93;98211.25;5003238;28;20033;-70
2022/05/31 10:36:56;;;;;;;2.33;0.75;;;;;;;28.11;30.20;98204.41;4999965;28;20034;-70
2022/05/31 10:39:24;;;;;;;2.45;1.20;;;;;;;29.38;29.52;98206.22;5006840;28;20034;-70
2022/05/31 10:41:53;;;;;;;1.65;0.90;;;;;;;30.10;28.36;98198.41;5009454;28;20100;-70
2022/05/31 10:44:29;;;;;;;3.05;0.90;;;;;;;26.83;31.19;98208.63;5004074;28;20034;-70
2022/05/31 10:47:00;;;;;;;3.47;0.88;;;;;;;30.04;29.16;98204.56;5001703;28;20022;-70
2022/05/31 10:49:26;;;;;;;2.78;1.08;;;;;;;30.89;26.14;98197.34;5004868;28;20034;-70
2022/05/31 10:52:03;;;;;;;4.47;0.82;;;;;;;32.42;25.46;98200.78;5007071;28;20052;-70
2022/05/31 10:54:56;;;;;;;1.95;0.80;;;;;;;33.87;25.04;98192.28;5010706;28;20061;-70
2022/05/31 10:57:50;;;;;;;3.10;0.70;;;;;;;33.47;26.35;98198.31;5028996;28;20056;-70
2022/05/31 11:00:21;;;;;;;6.53;0.70;;;;;;;34.83;24.17;98183.84;5025336;28;20018;-71
2022/05/31 11:02:59;;;;;;;1.33;0.73;;;;;;;34.28;24.36;98198.25;5025374;28;20103;-71
2022/05/31 11:06:05;;;;;;;3.72;0.73;;;;;;;33.85;25.18;98197.44;5032209;28;20061;-70
2022/05/31 11:12:20;;;;;;;2.85;0.93;;;;;;;33.78;23.35;98186.13;5000594;28;20112;-70
2022/05/31 11:15:02;;;;;;;2.85;0.80;;;;;;;33.87;23.10;98197.09;5002821;28;20428;-71
2022/05/31 11:17:37;;;;;;;3.40;0.77;;;;;;;32.60;24.75;98206.03;5001553;28;20060;-70
2022/05/31 11:20:14;;;;;;;3.10;1.08;;;;;;;32.57;25.79;98207.56;4998724;28;20076;-75
2022/05/31 11:22:59;;;;;;;2.53;0.70;;;;;;;32.78;26.20;98207.25;4996564;28;20153;-74
2022/05/31 11:51:01;;;;;;;1.60;0.90;;;;;;;29.75;26.81;98205.53;5084106;27;20352;-72
2022/05/31 11:53:38;;;;;;;4.28;0.93;;;;;;;30.16;26.67;98204.56;5083570;28;20040;-72
2022/05/31 11:56:06;;;;;;;1.00;0.60;;;;;;;29.25;26.80;98204.53;5072597;28;20134;-70
2022/05/31 11:58:51;;;;;;;1.65;0.88;;;;;;;27.88;26.97;98189.94;5072222;28;20028;-71
2022/05/31 12:01:23;;;;;;;1.77;0.60;;;;;;;27.64;27.57;98209.09;5073971;28;20054;-73
2022/05/31 12:04:17;;;;;;;2.70;0.70;;;;;;;26.52;28.96;98207.94;5080941;28;20038;-74
2022/05/31 12:06:55;;;;;;;1.75;0.65;;;;;;;25.98;29.68;98214.38;5077673;28;20107;-75
2022/05/31 12:09:31;;;;;;;3.90;0.60;;;;;;;26.01;30.95;98210.97;5082593;28;20025;-74
2022/05/31 12:12:09;;;;;;;2.60;0.90;;;;;;;25.74;30.58;98217.50;5073798;28;20422;-71
2022/05/31 12:14:43;;;;;;;1.10;0.70;;;;;;;25.31;30.63;98217.22;5079237;28;21019;-71
2022/05/31 12:17:09;;;;;;;0.85;0.55;;;;;;;25.14;30.72;98209.56;5077211;28;20044;-71
2022/05/31 12:19:54;;;;;;;1.08;0.57;;;;;;;24.85;30.72;98215.50;5076916;28;20028;-72
2022/05/31 12:22:28;;;;;;;1.15;0.68;;;;;;;24.94;30.71;98202.53;5075982;28;20021;-73
2022/05/31 12:25:04;;;;;;;2.00;1.00;;;;;;;24.87;30.63;98210.47;5071689;28;20496;-73
2022/05/31 12:27:56;;;;;;;1.20;0.43;;;;;;;24.81;30.50;98207.03;5078564;28;20020;-74
2022/05/31 12:30:36;;;;;;;2.05;0.70;;;;;;;24.36;30.78;98192.19;5068419;28;20067;-74
2022/05/31 12:33:21;;;;;;;1.92;0.82;;;;;;;24.66;30.71;98201.81;5079586;28;20497;-77
2022/05/31 12:35:53;;;;;;;3.85;0.77;;;;;;;24.60;30.87;98206.66;5068542;28;20060;-73